Terminal Aerodrome Forecast
Issued by NWS Goodland, KS

Home | Current Version | Previous Version | Text Only | Print | Product List | Glossary On
Versions: 1 2 3 4 5 6 7 8 9 10 11 12 13 14 15 16 17 18 19 20 21
000
FTUS43 KGLD 270536 AAB
TAFGLD
TAF AMD
KGLD 270536Z 2706/2806 VRB03KT P6SM FEW250
     FM270900 17005KT 5SM BR FEW250
     FM271000 19005KT 3SM BR SCT005
     FM271100 20005KT 1SM BR SCT005
      TEMPO 2712/2714 1/2SM FG BKN005
     FM271400 23004KT 3SM BR SCT005 SCT200
     FM271600 19005KT P6SM SCT200
     FM272100 15008KT P6SM SCT060 BKN150=

USA.gov is the U.S. government's official web portal to all federal, state and local government web resources and services.